Time;durP1;ratioP1;P1;durP2;ratioP2;P2;SDS_P1;SDS_P2;PMS_P1;PMS_P2;Temp;Humidity;BMP_temperature;BMP_pressure;BME280_temperature;BME280_humidity;BME280_pressure;Samples;Min_cycle;Max_cycle;Signal;HPM_P1;HPM_P2
2021/12/14 00:00:02;;;;;;;10.53;6.67;;;;;;;;;;5097113;28;20439;-65
2021/12/14 00:02:30;;;;;;;10.73;7.65;;;;;;;;;;5097174;28;20439;-65
2021/12/14 00:04:58;;;;;;;10.77;7.87;;;;;;;;;;5097861;28;20262;-65
2021/12/14 00:07:27;;;;;;;11.23;7.83;;;;;;;;;;5097514;28;20443;-65
2021/12/14 00:10:03;;;;;;;11.70;8.70;;;;;;;;;;5096966;28;20488;-66
2021/12/14 00:12:38;;;;;;;12.88;7.90;;;;;;;;;;5097419;28;20450;-66
2021/12/14 00:15:07;;;;;;;9.13;8.20;;;;;;;;;;5096587;28;20225;-67
2021/12/14 00:17:37;;;;;;;7.60;6.90;;;;;;;;;;5096861;28;20518;-65
2021/12/14 00:20:08;;;;;;;9.67;6.97;;;;;;;;;;5097860;28;20259;-65
2021/12/14 00:24:06;;;;;;;8.77;7.20;;;;;;;;;;5097250;28;20519;-66
2021/12/14 00:25:25;;;;;;;7.47;6.47;;;;;;;;;;5096561;28;20439;-65
2021/12/14 00:27:53;;;;;;;9.20;6.83;;;;;;;;;;5096897;28;20525;-65
2021/12/14 00:30:20;;;;;;;8.60;6.83;;;;;;;;;;5096886;28;20526;-65
2021/12/14 00:32:47;;;;;;;7.83;6.17;;;;;;;;;;5097163;28;20527;-66
2021/12/14 00:35:15;;;;;;;8.50;7.60;;;;;;;;;;5096847;28;20474;-65
2021/12/14 00:37:46;;;;;;;7.63;6.80;;;;;;;;;;5096746;28;20467;-65
2021/12/14 00:40:15;;;;;;;8.57;6.97;;;;;;;;;;5096740;28;20473;-65
2021/12/14 00:42:42;;;;;;;9.00;7.50;;;;;;;;;;5096634;28;20844;-65
2021/12/14 00:45:11;;;;;;;10.38;7.35;;;;;;;;;;5096842;28;20472;-65
2021/12/14 00:47:38;;;;;;;7.60;6.90;;;;;;;;;;5096531;28;20189;-66
2021/12/14 00:50:06;;;;;;;8.67;7.20;;;;;;;;;;5096178;28;20202;-65
2021/12/14 00:52:34;;;;;;;8.50;7.00;;;;;;;;;;5096729;28;20474;-65
2021/12/14 00:55:03;;;;;;;8.80;6.80;;;;;;;;;;5095997;28;20524;-65
2021/12/14 00:57:31;;;;;;;9.73;7.70;;;;;;;;;;5096354;28;21002;-65
2021/12/14 00:59:58;;;;;;;8.20;6.95;;;;;;;;;;5096392;28;20984;-65
2021/12/14 01:02:26;;;;;;;8.27;7.40;;;;;;;;;;5095969;28;20652;-65
2021/12/14 01:04:55;;;;;;;7.43;6.73;;;;;;;;;;5095911;28;20538;-65
2021/12/14 01:07:23;;;;;;;8.55;7.32;;;;;;;;;;5095220;28;20862;-66
2021/12/14 01:09:52;;;;;;;8.87;7.00;;;;;;;;;;5096317;28;20659;-65
2021/12/14 01:12:31;;;;;;;8.63;7.77;;;;;;;;;;5095995;28;20432;-65
2021/12/14 01:15:12;;;;;;;11.18;8.60;;;;;;;;;;5095870;28;20572;-65
2021/12/14 01:17:53;;;;;;;14.13;7.37;;;;;;;;;;5095719;28;20644;-65
2021/12/14 01:20:20;;;;;;;8.50;7.20;;;;;;;;;;5096227;28;20431;-65
2021/12/14 01:22:58;;;;;;;10.10;8.30;;;;;;;;;;5095619;28;20471;-65
2021/12/14 01:25:27;;;;;;;8.60;7.63;;;;;;;;;;5095890;28;20477;-65
2021/12/14 01:27:58;;;;;;;8.70;7.80;;;;;;;;;;5095469;28;20432;-65
2021/12/14 01:30:29;;;;;;;10.87;8.17;;;;;;;;;;5095469;28;20443;-65
2021/12/14 01:33:00;;;;;;;8.83;7.10;;;;;;;;;;5095641;28;20423;-65
2021/12/14 01:35:30;;;;;;;9.33;8.23;;;;;;;;;;5096223;28;20473;-65
2021/12/14 01:38:05;;;;;;;12.55;8.13;;;;;;;;;;5095733;28;20431;-65
2021/12/14 01:43:21;;;;;;;8.70;6.90;;;;;;;;;;5095343;28;20768;-65
2021/12/14 01:45:49;;;;;;;10.47;7.83;;;;;;;;;;5095296;28;20540;-65
2021/12/14 01:48:16;;;;;;;10.83;8.10;;;;;;;;;;5095078;28;20439;-65
2021/12/14 01:50:45;;;;;;;9.87;8.30;;;;;;;;;;5095324;28;20462;-65
2021/12/14 01:53:14;;;;;;;9.00;7.80;;;;;;;;;;5094987;28;20519;-65
2021/12/14 01:55:43;;;;;;;11.37;8.40;;;;;;;;;;5094847;28;20493;-65
2021/12/14 01:58:11;;;;;;;8.50;7.70;;;;;;;;;;5095163;28;20908;-65
2021/12/14 02:00:41;;;;;;;10.90;8.07;;;;;;;;;;5094858;28;20288;-65
2021/12/14 02:03:10;;;;;;;9.73;8.30;;;;;;;;;;5094814;28;20467;-65
2021/12/14 02:05:43;;;;;;;9.70;8.30;;;;;;;;;;5095344;28;20478;-65
2021/12/14 02:08:15;;;;;;;10.73;8.50;;;;;;;;;;5094690;28;20439;-65
2021/12/14 02:10:43;;;;;;;10.27;8.57;;;;;;;;;;5095700;28;20185;-66
2021/12/14 02:13:10;;;;;;;11.07;9.07;;;;;;;;;;5095472;28;20843;-65
2021/12/14 02:15:40;;;;;;;8.83;7.93;;;;;;;;;;5095059;28;20320;-65
2021/12/14 02:18:11;;;;;;;9.07;7.47;;;;;;;;;;5094722;28;20440;-65
2021/12/14 02:20:39;;;;;;;8.93;7.70;;;;;;;;;;5094949;28;20420;-65
2021/12/14 02:23:09;;;;;;;12.30;8.60;;;;;;;;;;5094720;28;20283;-65
2021/12/14 02:25:37;;;;;;;10.03;8.83;;;;;;;;;;5095239;28;20488;-64
2021/12/14 02:28:14;;;;;;;9.70;7.80;;;;;;;;;;5094916;28;20432;-65
2021/12/14 02:30:43;;;;;;;12.90;8.63;;;;;;;;;;5094378;28;20427;-65
2021/12/14 02:33:12;;;;;;;9.73;7.25;;;;;;;;;;5094269;28;20533;-65
2021/12/14 02:35:40;;;;;;;10.00;8.90;;;;;;;;;;5094644;28;20743;-65
2021/12/14 02:38:12;;;;;;;10.40;7.80;;;;;;;;;;5094810;28;20527;-65
2021/12/14 02:40:54;;;;;;;9.50;7.90;;;;;;;;;;5094710;28;20423;-65
2021/12/14 02:43:23;;;;;;;11.23;8.70;;;;;;;;;;5094164;28;20914;-65
2021/12/14 02:45:50;;;;;;;10.55;7.75;;;;;;;;;;5094531;28;20482;-65
2021/12/14 02:48:17;;;;;;;10.25;8.38;;;;;;;;;;5094329;28;20283;-65
2021/12/14 02:50:45;;;;;;;9.73;7.87;;;;;;;;;;5093940;28;20196;-65
2021/12/14 02:53:14;;;;;;;11.50;8.83;;;;;;;;;;5093851;28;20444;-65
2021/12/14 02:55:41;;;;;;;8.30;7.03;;;;;;;;;;5094107;28;20570;-65
2021/12/14 02:58:09;;;;;;;18.53;8.80;;;;;;;;;;5094690;28;20427;-65
2021/12/14 03:00:38;;;;;;;8.80;7.90;;;;;;;;;;5094097;28;20802;-65
2021/12/14 03:03:06;;;;;;;12.90;8.50;;;;;;;;;;5094052;28;20435;-65
2021/12/14 03:05:35;;;;;;;10.03;8.00;;;;;;;;;;5093696;28;20293;-65
2021/12/14 03:08:05;;;;;;;10.32;8.38;;;;;;;;;;5093655;28;20465;-65
2021/12/14 03:10:50;;;;;;;8.98;8.00;;;;;;;;;;5094042;28;20275;-65
2021/12/14 03:13:17;;;;;;;11.35;8.23;;;;;;;;;;5094005;28;20193;-65
2021/12/14 03:15:48;;;;;;;9.23;8.15;;;;;;;;;;5093372;28;20272;-65
2021/12/14 03:18:17;;;;;;;12.20;8.50;;;;;;;;;;5094255;28;20246;-65
2021/12/14 03:20:45;;;;;;;8.95;7.93;;;;;;;;;;5093765;28;20535;-65
2021/12/14 03:23:14;;;;;;;8.98;7.50;;;;;;;;;;5093702;28;20294;-65
2021/12/14 03:25:45;;;;;;;8.43;7.25;;;;;;;;;;5093791;28;20230;-65
2021/12/14 03:28:13;;;;;;;8.70;7.90;;;;;;;;;;5094222;28;20581;-65
2021/12/14 03:30:43;;;;;;;8.98;8.02;;;;;;;;;;5093531;28;20300;-65
2021/12/14 03:33:16;;;;;;;12.57;8.90;;;;;;;;;;5093908;28;20235;-65
2021/12/14 03:35:46;;;;;;;9.55;8.15;;;;;;;;;;5094053;28;20952;-65
2021/12/14 03:38:16;;;;;;;10.25;8.60;;;;;;;;;;5093730;28;20235;-64
2021/12/14 03:40:44;;;;;;;12.80;8.80;;;;;;;;;;5094188;28;20203;-65
2021/12/14 03:43:13;;;;;;;11.57;8.97;;;;;;;;;;5093572;28;20225;-65
2021/12/14 03:45:41;;;;;;;11.10;8.33;;;;;;;;;;5093361;28;20447;-65
2021/12/14 03:48:08;;;;;;;13.30;9.37;;;;;;;;;;5094070;28;20439;-65
2021/12/14 03:50:40;;;;;;;9.90;8.25;;;;;;;;;;5093516;28;20467;-65
2021/12/14 03:53:07;;;;;;;9.10;8.23;;;;;;;;;;5093211;28;20271;-65
2021/12/14 03:55:36;;;;;;;12.63;9.57;;;;;;;;;;5093384;28;20547;-65
2021/12/14 03:58:09;;;;;;;9.35;8.43;;;;;;;;;;5093968;28;20232;-65
2021/12/14 04:00:40;;;;;;;11.53;8.60;;;;;;;;;;5093891;28;20213;-65
2021/12/14 04:03:10;;;;;;;11.40;8.40;;;;;;;;;;5093116;28;20463;-65
2021/12/14 04:05:38;;;;;;;10.07;7.75;;;;;;;;;;5093179;28;20434;-65
2021/12/14 04:08:06;;;;;;;9.40;7.90;;;;;;;;;;5093630;28;20288;-65
2021/12/14 04:10:35;;;;;;;10.80;8.50;;;;;;;;;;5093313;28;20868;-65
2021/12/14 04:13:02;;;;;;;8.80;8.00;;;;;;;;;;5093383;28;20515;-65
2021/12/14 04:15:31;;;;;;;12.20;8.00;;;;;;;;;;5093117;28;20501;-65
2021/12/14 04:17:59;;;;;;;8.67;7.83;;;;;;;;;;5092946;28;20482;-65
2021/12/14 04:20:27;;;;;;;10.33;8.50;;;;;;;;;;5093243;28;20483;-65
2021/12/14 04:22:55;;;;;;;10.03;8.10;;;;;;;;;;5093243;28;20472;-65
2021/12/14 04:25:25;;;;;;;13.00;8.33;;;;;;;;;;5092893;28;20538;-65
2021/12/14 04:27:53;;;;;;;9.47;8.47;;;;;;;;;;5092847;28;20467;-66
2021/12/14 04:30:22;;;;;;;12.63;8.32;;;;;;;;;;5093099;28;20489;-67
2021/12/14 04:32:52;;;;;;;10.50;8.93;;;;;;;;;;5093135;28;20203;-65
2021/12/14 04:35:19;;;;;;;10.27;8.90;;;;;;;;;;5092699;28;20578;-65
2021/12/14 04:37:49;;;;;;;11.02;8.70;;;;;;;;;;5092791;28;20484;-65
2021/12/14 04:40:35;;;;;;;9.50;8.40;;;;;;;;;;5093262;28;20194;-65
2021/12/14 04:54:16;;;;;;;13.65;9.20;;;;;;;;;;5096343;28;20177;-65
2021/12/14 04:56:46;;;;;;;9.75;8.70;;;;;;;;;;5096361;28;20579;-65
2021/12/14 04:59:15;;;;;;;9.73;7.80;;;;;;;;;;5096336;28;20193;-65
2021/12/14 05:01:45;;;;;;;11.43;8.32;;;;;;;;;;5096335;28;20469;-66
2021/12/14 05:04:17;;;;;;;13.10;8.20;;;;;;;;;;5095991;28;20229;-65
2021/12/14 05:06:48;;;;;;;12.33;8.73;;;;;;;;;;5096214;28;20438;-65
2021/12/14 05:09:23;;;;;;;10.63;9.38;;;;;;;;;;5096613;28;20481;-65
2021/12/14 05:11:51;;;;;;;12.68;9.48;;;;;;;;;;5096460;28;20271;-65
2021/12/14 05:14:18;;;;;;;10.52;8.77;;;;;;;;;;5095808;28;20208;-65
2021/12/14 05:16:47;;;;;;;11.40;10.23;;;;;;;;;;5096424;28;20229;-65
2021/12/14 05:19:15;;;;;;;11.43;10.23;;;;;;;;;;5096105;28;20236;-65
2021/12/14 05:21:44;;;;;;;12.13;10.93;;;;;;;;;;5094172;28;20286;-65
2021/12/14 05:24:12;;;;;;;15.43;10.77;;;;;;;;;;5094480;28;20201;-65
2021/12/14 05:26:40;;;;;;;13.80;10.27;;;;;;;;;;5094732;28;20254;-65
2021/12/14 05:29:09;;;;;;;15.77;11.63;;;;;;;;;;5094804;28;20481;-65
2021/12/14 05:31:42;;;;;;;12.48;10.85;;;;;;;;;;5095281;28;20556;-65
2021/12/14 05:34:09;;;;;;;15.95;12.27;;;;;;;;;;5094843;28;20272;-65
2021/12/14 05:36:40;;;;;;;12.48;9.85;;;;;;;;;;5094800;28;20308;-65
2021/12/14 05:39:23;;;;;;;16.30;13.00;;;;;;;;;;5095343;28;20185;-65
2021/12/14 05:44:36;;;;;;;14.77;11.50;;;;;;;;;;5095336;28;20500;-65
2021/12/14 05:47:06;;;;;;;13.15;11.82;;;;;;;;;;5095101;28;20248;-65
2021/12/14 05:49:33;;;;;;;15.87;12.03;;;;;;;;;;5095111;28;20205;-65
2021/12/14 05:52:02;;;;;;;15.20;11.80;;;;;;;;;;5094943;28;20523;-64
2021/12/14 05:54:32;;;;;;;15.65;12.45;;;;;;;;;;5095118;28;20258;-64
2021/12/14 05:57:01;;;;;;;14.20;12.57;;;;;;;;;;5095176;28;20302;-64
2021/12/14 05:59:29;;;;;;;14.63;13.20;;;;;;;;;;5094884;28;20195;-64
2021/12/14 06:01:57;;;;;;;17.50;12.50;;;;;;;;;;5095137;28;20236;-64
2021/12/14 06:04:27;;;;;;;18.00;12.50;;;;;;;;;;5095110;28;20284;-64
2021/12/14 06:06:57;;;;;;;15.53;12.33;;;;;;;;;;5094709;28;20961;-64
2021/12/14 06:09:28;;;;;;;14.02;12.50;;;;;;;;;;5095511;28;20525;-64
2021/12/14 06:11:56;;;;;;;15.60;13.40;;;;;;;;;;5095122;28;20224;-64
2021/12/14 06:14:26;;;;;;;19.50;14.15;;;;;;;;;;5094658;28;20490;-63
2021/12/14 06:16:55;;;;;;;16.05;13.73;;;;;;;;;;5094746;28;20320;-63
2021/12/14 06:19:25;;;;;;;18.00;15.60;;;;;;;;;;5094425;28;20689;-63
2021/12/14 06:21:57;;;;;;;19.20;14.27;;;;;;;;;;5094235;28;20193;-64
2021/12/14 06:24:27;;;;;;;21.23;14.00;;;;;;;;;;5094947;28;20849;-63
2021/12/14 06:26:56;;;;;;;16.08;12.82;;;;;;;;;;5094664;28;20530;-63
2021/12/14 06:29:24;;;;;;;15.70;13.52;;;;;;;;;;5094237;28;20243;-71
2021/12/14 06:31:53;;;;;;;15.85;13.45;;;;;;;;;;5094601;28;20286;-63
2021/12/14 06:34:25;;;;;;;16.30;13.60;;;;;;;;;;5094529;28;20197;-63
2021/12/14 06:37:23;;;;;;;18.30;15.00;;;;;;;;;;5094136;28;20298;-63
2021/12/14 06:40:05;;;;;;;16.35;14.30;;;;;;;;;;5094929;28;20549;-63
2021/12/14 06:42:32;;;;;;;19.27;14.88;;;;;;;;;;5094610;28;20197;-63
2021/12/14 06:45:09;;;;;;;15.40;13.65;;;;;;;;;;5094946;28;20197;-63
2021/12/14 06:47:40;;;;;;;20.20;15.80;;;;;;;;;;5094415;28;20639;-63
2021/12/14 06:50:09;;;;;;;20.80;15.63;;;;;;;;;;5094564;28;20199;-63
2021/12/14 06:52:37;;;;;;;18.13;14.02;;;;;;;;;;5094128;28;20284;-63
2021/12/14 06:55:07;;;;;;;22.65;16.17;;;;;;;;;;5093833;28;20287;-63
2021/12/14 06:57:34;;;;;;;20.08;16.98;;;;;;;;;;5094422;28;20620;-64
2021/12/14 07:00:02;;;;;;;23.02;15.80;;;;;;;;;;5093676;28;20250;-63
2021/12/14 07:02:30;;;;;;;21.13;16.23;;;;;;;;;;5094025;28;20283;-63
2021/12/14 07:04:57;;;;;;;26.02;17.85;;;;;;;;;;5093312;28;20727;-64
2021/12/14 07:07:26;;;;;;;19.45;14.40;;;;;;;;;;5093563;28;20234;-63
2021/12/14 07:09:54;;;;;;;22.63;17.90;;;;;;;;;;5093873;28;20430;-63
2021/12/14 07:12:24;;;;;;;24.48;16.75;;;;;;;;;;5093814;28;20287;-64
2021/12/14 07:15:05;;;;;;;23.33;17.42;;;;;;;;;;5093653;28;20683;-63
2021/12/14 07:17:41;;;;;;;23.50;17.67;;;;;;;;;;5093976;28;20312;-64
2021/12/14 07:20:17;;;;;;;24.77;19.10;;;;;;;;;;5093507;28;20632;-63
2021/12/14 07:22:46;;;;;;;25.98;17.05;;;;;;;;;;5093439;28;20220;-63
2021/12/14 07:25:15;;;;;;;25.45;17.75;;;;;;;;;;5093244;28;20197;-63
2021/12/14 07:27:44;;;;;;;22.42;17.70;;;;;;;;;;5093498;28;20200;-63
2021/12/14 07:30:14;;;;;;;26.57;16.93;;;;;;;;;;5093167;28;20205;-65
2021/12/14 07:32:46;;;;;;;25.13;18.00;;;;;;;;;;5093742;28;20929;-64
2021/12/14 07:35:32;;;;;;;22.08;16.40;;;;;;;;;;5093284;28;20474;-64
2021/12/14 07:38:01;;;;;;;24.63;17.60;;;;;;;;;;5093363;28;20224;-64
2021/12/14 07:40:35;;;;;;;23.05;16.23;;;;;;;;;;5093582;28;20280;-65
2021/12/14 07:43:16;;;;;;;24.95;17.15;;;;;;;;;;5093286;28;20227;-63
2021/12/14 07:45:44;;;;;;;32.40;17.48;;;;;;;;;;5093597;28;20325;-64
2021/12/14 07:48:12;;;;;;;27.15;18.83;;;;;;;;;;5093434;28;20258;-63
2021/12/14 07:50:47;;;;;;;22.83;17.33;;;;;;;;;;5093198;28;20280;-64
2021/12/14 07:53:15;;;;;;;28.85;18.25;;;;;;;;;;5093426;28;20292;-64
2021/12/14 07:55:44;;;;;;;26.20;18.63;;;;;;;;;;5093315;28;20239;-63
2021/12/14 07:58:12;;;;;;;27.55;18.48;;;;;;;;;;5093354;28;20194;-64
2021/12/14 08:00:42;;;;;;;29.48;19.67;;;;;;;;;;5093076;28;20296;-64
2021/12/14 08:03:10;;;;;;;28.95;19.50;;;;;;;;;;5093633;28;20197;-63
2021/12/14 08:05:41;;;;;;;24.83;18.85;;;;;;;;;;5093079;28;20232;-64
2021/12/14 08:08:15;;;;;;;29.50;17.83;;;;;;;;;;5093444;28;20272;-64
2021/12/14 08:10:45;;;;;;;27.20;19.15;;;;;;;;;;5093076;28;20184;-63
2021/12/14 08:13:14;;;;;;;31.15;21.17;;;;;;;;;;5093994;28;20272;-64
2021/12/14 08:15:46;;;;;;;29.40;20.08;;;;;;;;;;5092773;28;20241;-64
2021/12/14 08:18:14;;;;;;;29.65;19.48;;;;;;;;;;5097122;28;20196;-64
2021/12/14 08:20:45;;;;;;;28.13;17.98;;;;;;;;;;5097159;28;20197;-64
2021/12/14 08:23:16;;;;;;;30.10;20.10;;;;;;;;;;5097347;28;20189;-63
2021/12/14 08:25:44;;;;;;;27.58;19.27;;;;;;;;;;5097487;28;20478;-64
2021/12/14 08:28:11;;;;;;;27.35;19.35;;;;;;;;;;5096659;28;20240;-64
2021/12/14 08:30:40;;;;;;;28.85;20.27;;;;;;;;;;5097046;28;20204;-64
2021/12/14 08:33:17;;;;;;;27.95;19.45;;;;;;;;;;5097173;28;20656;-64
2021/12/14 08:35:44;;;;;;;33.92;19.60;;;;;;;;;;5096733;28;20183;-64
2021/12/14 08:38:15;;;;;;;28.00;19.43;;;;;;;;;;5096765;28;20291;-64
2021/12/14 08:40:45;;;;;;;27.50;19.08;;;;;;;;;;5096779;28;20503;-64
2021/12/14 08:43:21;;;;;;;30.05;19.90;;;;;;;;;;5097262;28;20204;-64
2021/12/14 08:45:49;;;;;;;30.65;20.92;;;;;;;;;;5097522;28;20543;-65
2021/12/14 08:48:19;;;;;;;28.80;18.67;;;;;;;;;;5096562;28;20235;-63
2021/12/14 08:50:52;;;;;;;33.47;19.02;;;;;;;;;;5096242;28;20423;-64
2021/12/14 08:53:20;;;;;;;29.80;19.70;;;;;;;;;;5096701;28;20184;-64
2021/12/14 08:55:49;;;;;;;27.95;17.65;;;;;;;;;;5096422;28;20203;-64
2021/12/14 08:58:16;;;;;;;32.75;19.48;;;;;;;;;;5096378;28;20236;-63
2021/12/14 09:00:51;;;;;;;25.50;18.60;;;;;;;;;;5096054;28;20201;-64
2021/12/14 09:03:24;;;;;;;33.28;20.08;;;;;;;;;;5096552;28;20189;-64
2021/12/14 09:05:53;;;;;;;27.77;19.23;;;;;;;;;;5096815;28;20178;-64
2021/12/14 09:08:22;;;;;;;30.67;20.40;;;;;;;;;;5095921;28;20204;-64
2021/12/14 09:10:51;;;;;;;34.92;20.17;;;;;;;;;;5095811;28;20654;-64
2021/12/14 09:13:19;;;;;;;27.55;17.92;;;;;;;;;;5095869;28;20285;-64
2021/12/14 09:15:50;;;;;;;30.98;21.77;;;;;;;;;;5095708;28;20229;-63
2021/12/14 09:18:18;;;;;;;28.55;17.92;;;;;;;;;;5095976;28;20217;-64
2021/12/14 09:20:49;;;;;;;27.23;18.45;;;;;;;;;;5094959;28;20194;-64
2021/12/14 09:23:18;;;;;;;33.45;21.83;;;;;;;;;;5096121;28;20272;-63
2021/12/14 09:25:46;;;;;;;32.40;19.65;;;;;;;;;;5095415;28;20284;-63
2021/12/14 09:28:14;;;;;;;31.85;21.80;;;;;;;;;;5095378;28;20603;-63
2021/12/14 09:30:43;;;;;;;31.00;20.02;;;;;;;;;;5095399;28;20232;-63
2021/12/14 09:33:11;;;;;;;29.10;20.60;;;;;;;;;;5095319;28;20197;-63
2021/12/14 09:35:44;;;;;;;29.20;20.25;;;;;;;;;;5095384;28;20229;-63
2021/12/14 09:38:17;;;;;;;29.92;20.02;;;;;;;;;;5096131;28;20216;-64
2021/12/14 09:40:48;;;;;;;30.92;18.98;;;;;;;;;;5095290;28;20193;-64
2021/12/14 09:43:16;;;;;;;30.37;20.90;;;;;;;;;;5095649;28;20204;-64
2021/12/14 09:45:45;;;;;;;27.90;18.45;;;;;;;;;;5095160;28;20443;-64
2021/12/14 09:48:13;;;;;;;29.92;19.58;;;;;;;;;;5095562;28;20719;-64
2021/12/14 09:50:41;;;;;;;30.05;19.40;;;;;;;;;;5095364;28;20620;-64
2021/12/14 09:53:10;;;;;;;30.02;18.27;;;;;;;;;;5095572;28;20193;-64
2021/12/14 09:55:41;;;;;;;28.95;19.35;;;;;;;;;;5095010;28;20246;-63
2021/12/14 09:58:10;;;;;;;30.88;20.25;;;;;;;;;;5095336;28;20208;-64
2021/12/14 10:00:39;;;;;;;31.63;19.92;;;;;;;;;;5094964;28;20201;-67
2021/12/14 10:03:06;;;;;;;35.17;21.75;;;;;;;;;;5094803;28;20225;-64
2021/12/14 10:05:36;;;;;;;34.50;21.97;;;;;;;;;;5094827;28;20204;-64
2021/12/14 10:08:13;;;;;;;33.20;20.67;;;;;;;;;;5095167;28;20466;-64
2021/12/14 10:10:42;;;;;;;32.73;21.30;;;;;;;;;;5095221;28;20665;-63
2021/12/14 10:13:10;;;;;;;33.45;21.60;;;;;;;;;;5094879;28;20478;-64
2021/12/14 10:15:39;;;;;;;35.17;23.42;;;;;;;;;;5094624;28;20221;-64
2021/12/14 10:18:09;;;;;;;31.87;19.43;;;;;;;;;;5094936;28;20314;-64
2021/12/14 10:20:39;;;;;;;32.05;21.77;;;;;;;;;;5094666;28;20477;-64
2021/12/14 10:23:06;;;;;;;38.17;22.50;;;;;;;;;;5094466;28;20197;-64
2021/12/14 10:25:34;;;;;;;28.93;19.90;;;;;;;;;;5094687;28;20796;-64
2021/12/14 10:28:04;;;;;;;28.10;19.70;;;;;;;;;;5095217;28;20443;-64
2021/12/14 10:30:35;;;;;;;32.63;21.08;;;;;;;;;;5094602;28;20530;-64
2021/12/14 10:33:03;;;;;;;30.52;18.40;;;;;;;;;;5094675;28;20553;-63
2021/12/14 10:35:35;;;;;;;37.25;23.30;;;;;;;;;;5094243;28;20202;-64
2021/12/14 10:38:14;;;;;;;30.08;20.52;;;;;;;;;;5094111;28;20204;-64
2021/12/14 10:43:35;;;;;;;28.77;18.73;;;;;;;;;;5037340;28;20203;-64
2021/12/14 10:46:04;;;;;;;35.20;21.50;;;;;;;;;;5095339;28;20225;-64
2021/12/14 10:48:33;;;;;;;34.30;21.17;;;;;;;;;;5094260;28;20513;-63
2021/12/14 10:51:01;;;;;;;34.57;21.20;;;;;;;;;;5094486;28;20553;-64
2021/12/14 10:53:28;;;;;;;34.80;21.63;;;;;;;;;;5093911;28;20485;-64
2021/12/14 10:55:57;;;;;;;31.10;19.73;;;;;;;;;;5093931;28;20440;-65
2021/12/14 10:58:27;;;;;;;39.33;21.70;;;;;;;;;;5094274;28;20471;-65
2021/12/14 11:00:57;;;;;;;27.65;17.70;;;;;;;;;;5093901;28;20438;-65
2021/12/14 11:03:26;;;;;;;37.20;21.00;;;;;;;;;;5094496;28;20193;-63
2021/12/14 11:05:54;;;;;;;30.83;21.25;;;;;;;;;;5094208;28;20616;-64
2021/12/14 11:11:04;;;;;;;31.50;19.15;;;;;;;;;;5091264;28;20281;-64
2021/12/14 11:13:38;;;;;;;38.58;22.83;;;;;;;;;;5095041;28;20203;-64
2021/12/14 11:16:15;;;;;;;32.80;20.17;;;;;;;;;;5094690;28;20227;-65
2021/12/14 11:18:42;;;;;;;33.05;19.60;;;;;;;;;;5094313;28;20482;-65
2021/12/14 11:21:13;;;;;;;36.47;23.58;;;;;;;;;;5093966;28;20197;-65
2021/12/14 11:23:41;;;;;;;35.25;22.83;;;;;;;;;;5093535;28;20205;-63
2021/12/14 11:26:11;;;;;;;36.88;21.80;;;;;;;;;;5093633;28;20196;-64
2021/12/14 11:28:39;;;;;;;28.42;18.92;;;;;;;;;;5093272;28;20291;-65
2021/12/14 11:31:11;;;;;;;35.28;20.75;;;;;;;;;;5093224;28;20280;-63
2021/12/14 11:33:42;;;;;;;35.42;21.80;;;;;;;;;;5093854;28;20195;-63
2021/12/14 11:36:12;;;;;;;40.90;21.60;;;;;;;;;;5093764;28;20651;-64
2021/12/14 11:38:40;;;;;;;31.27;20.42;;;;;;;;;;5093223;28;20517;-64
2021/12/14 11:41:23;;;;;;;36.27;22.13;;;;;;;;;;5093100;28;20197;-63
2021/12/14 11:43:53;;;;;;;36.38;22.50;;;;;;;;;;5093847;28;20427;-64
2021/12/14 11:46:22;;;;;;;34.47;20.38;;;;;;;;;;5093433;28;20225;-64
2021/12/14 11:48:50;;;;;;;35.20;22.90;;;;;;;;;;5093624;28;20286;-64
2021/12/14 11:51:17;;;;;;;38.07;23.57;;;;;;;;;;5093957;28;20536;-64
2021/12/14 11:53:52;;;;;;;34.90;22.30;;;;;;;;;;5097489;28;20488;-64
2021/12/14 11:56:21;;;;;;;39.38;24.10;;;;;;;;;;5097797;28;20509;-64
2021/12/14 11:58:50;;;;;;;39.33;23.50;;;;;;;;;;5097177;28;20260;-64
2021/12/14 12:01:20;;;;;;;32.90;22.97;;;;;;;;;;5097467;28;20435;-63
2021/12/14 12:03:53;;;;;;;39.07;23.57;;;;;;;;;;5098168;28;20824;-64
2021/12/14 12:06:44;;;;;;;35.58;21.33;;;;;;;;;;5097087;28;20419;-63
2021/12/14 12:09:31;;;;;;;33.55;20.85;;;;;;;;;;5097314;28;20196;-64
2021/12/14 12:12:16;;;;;;;37.25;24.13;;;;;;;;;;5096971;28;20197;-63
2021/12/14 12:14:47;;;;;;;39.23;23.07;;;;;;;;;;5083996;28;20192;-63
2021/12/14 12:17:19;;;;;;;38.85;23.55;;;;;;;;;;5096727;28;20562;-64
2021/12/14 12:20:05;;;;;;;40.43;22.67;;;;;;;;;;5097451;28;20275;-64
2021/12/14 12:22:34;;;;;;;39.35;24.90;;;;;;;;;;5096998;28;20476;-64
2021/12/14 12:25:02;;;;;;;37.97;23.77;;;;;;;;;;5097124;28;20712;-64
2021/12/14 12:27:31;;;;;;;41.47;23.57;;;;;;;;;;5097433;28;20508;-64
2021/12/14 12:30:09;;;;;;;40.25;24.58;;;;;;;;;;5096961;28;20484;-64
2021/12/14 12:32:37;;;;;;;37.17;22.83;;;;;;;;;;5097833;28;20540;-64
2021/12/14 12:35:20;;;;;;;38.80;23.30;;;;;;;;;;5096564;28;20443;-64
2021/12/14 12:37:47;;;;;;;37.00;24.17;;;;;;;;;;5096965;28;20732;-63
2021/12/14 12:40:17;;;;;;;41.63;25.88;;;;;;;;;;5096883;28;20476;-64
2021/12/14 12:42:45;;;;;;;36.33;24.30;;;;;;;;;;5096887;28;20292;-64
2021/12/14 12:45:25;;;;;;;41.50;26.13;;;;;;;;;;5097435;28;20491;-64
2021/12/14 12:47:52;;;;;;;41.27;25.67;;;;;;;;;;5097468;28;20431;-64
2021/12/14 12:50:24;;;;;;;38.33;23.55;;;;;;;;;;5097536;28;20523;-64
2021/12/14 12:52:51;;;;;;;39.23;24.03;;;;;;;;;;5097226;28;20185;-64
2021/12/14 12:55:28;;;;;;;41.33;25.30;;;;;;;;;;5096902;28;20471;-64
2021/12/14 12:57:59;;;;;;;36.97;22.70;;;;;;;;;;5096958;28;20467;-64
2021/12/14 13:00:29;;;;;;;47.33;23.87;;;;;;;;;;5097179;28;20434;-64
2021/12/14 13:02:59;;;;;;;39.10;23.97;;;;;;;;;;5095747;28;20434;-64
2021/12/14 13:05:31;;;;;;;36.40;21.67;;;;;;;;;;5097332;28;20511;-63
2021/12/14 13:07:59;;;;;;;41.30;24.43;;;;;;;;;;5096958;28;20217;-64
2021/12/14 13:10:29;;;;;;;40.80;23.50;;;;;;;;;;5096680;28;20522;-63
2021/12/14 13:13:00;;;;;;;41.43;24.33;;;;;;;;;;5096375;28;20443;-64
2021/12/14 13:15:34;;;;;;;36.78;23.02;;;;;;;;;;5096455;28;20479;-64
2021/12/14 13:18:21;;;;;;;40.63;23.80;;;;;;;;;;5096126;28;20255;-63
2021/12/14 13:20:51;;;;;;;29.27;18.77;;;;;;;;;;5096760;28;20194;-71
2021/12/14 13:23:22;;;;;;;39.25;22.42;;;;;;;;;;5096359;28;20231;-66
2021/12/14 13:25:49;;;;;;;41.53;23.65;;;;;;;;;;5096816;28;20587;-66
2021/12/14 13:28:18;;;;;;;39.22;23.02;;;;;;;;;;5096634;28;20240;-66
2021/12/14 13:30:46;;;;;;;41.00;23.92;;;;;;;;;;5095605;28;20201;-66
2021/12/14 13:36:09;;;;;;;34.55;23.30;;;;;;;;;;5091923;28;20433;-67
2021/12/14 13:38:38;;;;;;;38.70;24.47;;;;;;;;;;5094503;28;20560;-66
2021/12/14 13:41:23;;;;;;;40.33;24.17;;;;;;;;;;5095184;28;20451;-66
2021/12/14 13:43:50;;;;;;;37.10;24.37;;;;;;;;;;5095226;28;20423;-66
2021/12/14 13:46:18;;;;;;;37.53;22.00;;;;;;;;;;5095486;28;20435;-66
2021/12/14 13:48:45;;;;;;;32.87;20.93;;;;;;;;;;5096205;28;20471;-66
2021/12/14 13:51:15;;;;;;;38.77;23.00;;;;;;;;;;5095476;28;20443;-66
2021/12/14 13:53:43;;;;;;;37.90;22.75;;;;;;;;;;5095514;28;20522;-67
2021/12/14 13:56:12;;;;;;;45.53;24.67;;;;;;;;;;5095011;28;20190;-67
2021/12/14 13:58:39;;;;;;;44.40;26.70;;;;;;;;;;5094766;28;20472;-67
2021/12/14 14:01:08;;;;;;;38.63;22.17;;;;;;;;;;5095096;28;20527;-67
2021/12/14 14:03:38;;;;;;;43.30;25.00;;;;;;;;;;5095693;28;20518;-67
2021/12/14 14:06:07;;;;;;;53.67;30.33;;;;;;;;;;5095108;28;20439;-66
2021/12/14 14:08:40;;;;;;;37.33;22.70;;;;;;;;;;5094866;28;20482;-67
2021/12/14 14:11:11;;;;;;;43.60;22.83;;;;;;;;;;5094851;28;20177;-67
2021/12/14 14:13:40;;;;;;;61.37;34.03;;;;;;;;;;5094436;28;20443;-67
2021/12/14 14:16:07;;;;;;;39.33;25.07;;;;;;;;;;5094415;28;20872;-67
2021/12/14 14:18:36;;;;;;;41.47;25.93;;;;;;;;;;5094757;28;20884;-67
2021/12/14 14:21:05;;;;;;;40.80;26.50;;;;;;;;;;5095258;28;20488;-67
2021/12/14 14:23:38;;;;;;;40.13;27.03;;;;;;;;;;5095285;28;20517;-67
2021/12/14 14:26:07;;;;;;;43.28;27.05;;;;;;;;;;5095364;28;20461;-67
2021/12/14 14:28:40;;;;;;;48.22;29.15;;;;;;;;;;5094054;28;20197;-66
2021/12/14 14:31:08;;;;;;;55.63;30.33;;;;;;;;;;5093805;28;20190;-66
2021/12/14 14:33:43;;;;;;;43.85;27.30;;;;;;;;;;5093859;28;20867;-66
2021/12/14 14:36:12;;;;;;;43.42;26.35;;;;;;;;;;5093856;28;20207;-66
2021/12/14 14:38:42;;;;;;;42.67;26.77;;;;;;;;;;5094348;28;20217;-66
2021/12/14 14:41:29;;;;;;;38.05;23.45;;;;;;;;;;5093812;28;20467;-66
2021/12/14 14:43:58;;;;;;;38.17;25.05;;;;;;;;;;5094458;28;20304;-67
2021/12/14 14:46:48;;;;;;;42.60;25.43;;;;;;;;;;5094521;28;20258;-66
2021/12/14 14:49:17;;;;;;;36.13;23.60;;;;;;;;;;5093951;28;20460;-66
2021/12/14 14:51:46;;;;;;;38.20;22.63;;;;;;;;;;5094973;28;20478;-66
2021/12/14 14:54:32;;;;;;;38.45;25.50;;;;;;;;;;5093789;28;20473;-66
2021/12/14 14:57:01;;;;;;;37.20;24.67;;;;;;;;;;5094081;28;20305;-66
2021/12/14 14:59:29;;;;;;;40.58;24.67;;;;;;;;;;5093710;28;20467;-67
2021/12/14 15:01:56;;;;;;;34.10;22.67;;;;;;;;;;5093687;28;20198;-66
2021/12/14 15:04:23;;;;;;;49.03;24.35;;;;;;;;;;5093660;28;20644;-65
2021/12/14 15:06:51;;;;;;;34.85;23.33;;;;;;;;;;5093647;28;20285;-65